Upham, ND

8:50 AM CST on February 28, 2015 (GMT -0600)
APRSWXNET Newburg ND US | Change Station
CLOSE
Current Station
Personal Weather Station
Location: Newburg, ND
Elevation: 1495 ft
Nearby Weather Stations

Elev 1495 ft 48.78 °N, 100.93 °W | Updated 32 minutes ago

Mostly Cloudy
Mostly Cloudy
4 °F
Feels Like -4 °F
N
4
Wind Variable Wind from NW
Gusts 5.0 mph

Today
High -- | Low -- °F
--% Chance of Precip.
Yesterday
High -- | Low -- °F
Precip. -- in
7:26 AM 6:24 PM
Waxing Gibbous, 78% visible
Pressure 30.21 in
Visibility 10.0 miles
Clouds Overcast 3300 ft
Windchill -4 °F
Dew Point 1 °F
Humidity 85%
Rainfall 0.00 in
Snow Depth Not available.
UV 0 out of 12
Pollen .10 out of 12
Air Quality Not available.
Flu Activity Not available.
METAR KMIB 281358Z AUTO 31014KT 10SM OVC033 M15/M17 A3007 RMK AO2 SNB22E23SNB28E31SNB35E38 SLP229 P0000 T11471170 $

More Conditions Fewer Conditions

Pressure 30.21 in
Visibility 10.0 miles
Clouds Overcast 3300 ft
Windchill -4 °F
Dew Point 1 °F
Humidity 85%
Rainfall 0.00 in
Snow Depth Not available.
UV 0 out of 12
Pollen .10 out of 12
Air Quality Not available.
Flu Activity Not available.
METAR KMIB 281358Z AUTO 31014KT 10SM OVC033 M15/M17 A3007 RMK AO2 SNB22E23SNB28E31SNB35E38 SLP229 P0000 T11471170 $

More Conditions Fewer Conditions

10-Day Weather Forecast

Almanac

Astronomy

Feb. 28, 2015 Rise Set
Actual Time
Civil Twilight
Nautical Twilight
Astronomical Twilight
Moon
Length of Visible Light
Length of Day
Tomorrow will be .
, % of the Moon is Illuminated

Today's Extremes

State Highs State Lows

Community

WunderPhotos

Upload Photos

1,801,025 photos uploaded!

WunderBlogs® & News

Nearby

Air Quality

  Air Quality AQ Index Pollutant
Not available.

Snow Depth

Station Depth Elevation

Earthquake Activity

City Distance Mag. Time & Date
Minimum magnitude displayed is 2.5.

Coastal Water Temperatures

Place Temperature

Nearby Weather Stations